CSN3938 ZSQD-ZGHA
Flight info
| Callsign | CSN3938 |
|---|---|
| Flight time | N/A |
| Altitude | 26600 |
| Route | DYN W4 EKORO W37 GUSIV |
| Aircraft | A320/M-SDE2E3FGHIRWXY/LB2 |
Departure
| Time | 2026-04-17 09:18 |
|---|---|
| Airport | Qingdao Jiaodong International Airport (ZSQD) |
Arrival
| Time | N/A |
|---|---|
| Airport | Changsha Huanghua International Airport (ZGHA) |
| Time | Latitude | Longitude | Altitude | Speed | Heading |
|---|---|---|---|---|---|
| 2026-04-17 09:04 | 36.36573 | 120.09354 | 35 ft | 0 kts | 281° |
| 2026-04-17 09:07 | 36.36571 | 120.09371 | 35 ft | 2 kts | 280° |
| 2026-04-17 09:07 | 36.36569 | 120.09391 | 33 ft | 2 kts | 277° |
| 2026-04-17 09:07 | 36.36567 | 120.09402 | 34 ft | 2 kts | 293° |
| 2026-04-17 09:08 | 36.36560 | 120.09414 | 34 ft | 2 kts | 1° |
| 2026-04-17 09:08 | 36.36544 | 120.09416 | 34 ft | 2 kts | 349° |
| 2026-04-17 09:08 | 36.36529 | 120.09410 | 34 ft | 2 kts | 63° |
| 2026-04-17 09:08 | 36.36526 | 120.09402 | 33 ft | 0 kts | 44° |
| 2026-04-17 09:11 | 36.36533 | 120.09412 | 35 ft | 5 kts | 46° |
| 2026-04-17 09:11 | 36.36558 | 120.09475 | 35 ft | 12 kts | 71° |
| 2026-04-17 09:11 | 36.36588 | 120.09590 | 35 ft | 15 kts | 72° |
| 2026-04-17 09:12 | 36.36645 | 120.09677 | 35 ft | 14 kts | 359° |
| 2026-04-17 09:12 | 36.36734 | 120.09644 | 34 ft | 13 kts | 342° |
| 2026-04-17 09:12 | 36.36838 | 120.09602 | 35 ft | 20 kts | 342° |
| 2026-04-17 09:12 | 36.36987 | 120.09543 | 33 ft | 24 kts | 340° |
| 2026-04-17 09:13 | 36.37148 | 120.09478 | 35 ft | 25 kts | 342° |
| 2026-04-17 09:13 | 36.37321 | 120.09409 | 35 ft | 27 kts | 342° |
| 2026-04-17 09:13 | 36.37503 | 120.09339 | 35 ft | 28 kts | 342° |
| 2026-04-17 09:13 | 36.37692 | 120.09264 | 36 ft | 29 kts | 342° |
| 2026-04-17 09:14 | 36.37887 | 120.09187 | 35 ft | 30 kts | 342° |
| 2026-04-17 09:14 | 36.38028 | 120.09131 | 34 ft | 12 kts | 342° |
| 2026-04-17 09:14 | 36.38099 | 120.09130 | 36 ft | 10 kts | 37° |
| 2026-04-17 09:14 | 36.38116 | 120.09201 | 36 ft | 8 kts | 88° |
| 2026-04-17 09:15 | 36.38111 | 120.09261 | 36 ft | 6 kts | 102° |
| 2026-04-17 09:15 | 36.38099 | 120.09305 | 37 ft | 5 kts | 114° |
| 2026-04-17 09:15 | 36.38082 | 120.09333 | 37 ft | 3 kts | 136° |
| 2026-04-17 09:15 | 36.38065 | 120.09344 | 36 ft | 2 kts | 159° |
| 2026-04-17 09:16 | 36.38061 | 120.09346 | 37 ft | 0 kts | 163° |
| 2026-04-17 09:17 | 36.37933 | 120.09396 | 37 ft | 52 kts | 162° |
| 2026-04-17 09:17 | 36.37353 | 120.09624 | 36 ft | 119 kts | 162° |
| 2026-04-17 09:17 | 36.36388 | 120.10000 | 34 ft | 169 kts | 162° |
| 2026-04-17 09:17 | 36.35205 | 120.10452 | 511 ft | 180 kts | 163° |
| 2026-04-17 09:18 | 36.34012 | 120.10926 | 1255 ft | 181 kts | 162° |
| 2026-04-17 09:18 | 36.32855 | 120.11410 | 1936 ft | 185 kts | 162° |
| 2026-04-17 09:19 | 36.31877 | 120.11817 | 2321 ft | 198 kts | 162° |
| 2026-04-17 09:19 | 36.30509 | 120.12366 | 2717 ft | 216 kts | 162° |
| 2026-04-17 09:19 | 36.29011 | 120.12957 | 3118 ft | 238 kts | 163° |
| 2026-04-17 09:19 | 36.27359 | 120.13607 | 3651 ft | 259 kts | 162° |
| 2026-04-17 09:20 | 36.25617 | 120.14293 | 4236 ft | 265 kts | 163° |
| 2026-04-17 09:20 | 36.23873 | 120.14983 | 4815 ft | 267 kts | 162° |
| 2026-04-17 09:20 | 36.22029 | 120.15415 | 5388 ft | 269 kts | 185° |
| 2026-04-17 09:20 | 36.20832 | 120.15018 | 5777 ft | 270 kts | 208° |
| 2026-04-17 09:21 | 36.19244 | 120.12735 | 6545 ft | 272 kts | 254° |
| 2026-04-17 09:21 | 36.19066 | 120.11171 | 6942 ft | 274 kts | 270° |
| 2026-04-17 09:21 | 36.19352 | 120.08056 | 7707 ft | 276 kts | 280° |
| 2026-04-17 09:21 | 36.19693 | 120.05700 | 8289 ft | 279 kts | 280° |
| 2026-04-17 09:22 | 36.20038 | 120.03329 | 8865 ft | 281 kts | 280° |
| 2026-04-17 09:22 | 36.20266 | 120.01708 | 9256 ft | 283 kts | 278° |
| 2026-04-17 09:22 | 36.20441 | 119.98470 | 10029 ft | 286 kts | 270° |
| 2026-04-17 09:22 | 36.20456 | 119.96834 | 10402 ft | 288 kts | 273° |
| 2026-04-17 09:23 | 36.21136 | 119.93640 | 11171 ft | 292 kts | 299° |
| 2026-04-17 09:23 | 36.21944 | 119.92249 | 11573 ft | 297 kts | 314° |
| 2026-04-17 09:23 | 36.24308 | 119.90426 | 12348 ft | 313 kts | 341° |
| 2026-04-17 09:23 | 36.25704 | 119.89888 | 12731 ft | 321 kts | 342° |
| 2026-04-17 09:24 | 36.28614 | 119.88765 | 13512 ft | 334 kts | 342° |
| 2026-04-17 09:24 | 36.30091 | 119.88186 | 13894 ft | 340 kts | 342° |
| 2026-04-17 09:24 | 36.32370 | 119.87286 | 14474 ft | 344 kts | 342° |
| 2026-04-17 09:24 | 36.34671 | 119.86375 | 15057 ft | 348 kts | 342° |
| 2026-04-17 09:25 | 36.36987 | 119.85457 | 15636 ft | 351 kts | 342° |
| 2026-04-17 09:25 | 36.39320 | 119.84533 | 16212 ft | 354 kts | 342° |
| 2026-04-17 09:25 | 36.41674 | 119.83599 | 16790 ft | 357 kts | 342° |
| 2026-04-17 09:25 | 36.44059 | 119.82652 | 17371 ft | 360 kts | 342° |
| 2026-04-17 09:26 | 36.46454 | 119.81703 | 17951 ft | 363 kts | 342° |
| 2026-04-17 09:26 | 36.48876 | 119.80742 | 18526 ft | 367 kts | 342° |
| 2026-04-17 09:26 | 36.51318 | 119.79770 | 19105 ft | 370 kts | 342° |
| 2026-04-17 09:26 | 36.53774 | 119.78787 | 19683 ft | 373 kts | 342° |
| 2026-04-17 09:27 | 36.56255 | 119.77796 | 20262 ft | 376 kts | 342° |
| 2026-04-17 09:27 | 36.58750 | 119.76801 | 20837 ft | 379 kts | 342° |
| 2026-04-17 09:27 | 36.61308 | 119.75966 | 21409 ft | 381 kts | 350° |
| 2026-04-17 09:27 | 36.63920 | 119.75708 | 21991 ft | 383 kts | 1° |
| 2026-04-17 09:28 | 36.66573 | 119.76018 | 22561 ft | 384 kts | 7° |
| 2026-04-17 09:28 | 36.69224 | 119.76470 | 23138 ft | 384 kts | 7° |
| 2026-04-17 09:28 | 36.71880 | 119.76918 | 23725 ft | 387 kts | 7° |
| 2026-04-17 09:28 | 36.74564 | 119.77366 | 24294 ft | 390 kts | 7° |
| 2026-04-17 09:29 | 36.77242 | 119.77812 | 24866 ft | 388 kts | 7° |
| 2026-04-17 09:29 | 36.79933 | 119.78238 | 25444 ft | 388 kts | 4° |
| 2026-04-17 09:29 | 36.82617 | 119.78276 | 26018 ft | 386 kts | 355° |
| 2026-04-17 09:29 | 36.85286 | 119.77835 | 26472 ft | 389 kts | 350° |
| 2026-04-17 09:30 | 36.87994 | 119.77290 | 26585 ft | 399 kts | 351° |
| 2026-04-17 09:30 | 36.90741 | 119.76744 | 26611 ft | 404 kts | 351° |
| 2026-04-17 09:30 | 36.93563 | 119.76187 | 26615 ft | 418 kts | 351° |
| 2026-04-17 09:30 | 36.96490 | 119.75607 | 26609 ft | 431 kts | 351° |
| 2026-04-17 09:31 | 36.99489 | 119.75012 | 26614 ft | 443 kts | 351° |
| 2026-04-17 09:31 | 37.02571 | 119.74398 | 26608 ft | 454 kts | 351° |
| 2026-04-17 09:31 | 37.05722 | 119.73766 | 26606 ft | 463 kts | 351° |
| 2026-04-17 09:31 | 37.08935 | 119.73115 | 26609 ft | 469 kts | 351° |
| 2026-04-17 09:32 | 37.12161 | 119.72460 | 26608 ft | 471 kts | 351° |
| 2026-04-17 09:32 | 37.15404 | 119.71804 | 26607 ft | 472 kts | 351° |
| 2026-04-17 09:32 | 37.18607 | 119.71160 | 26610 ft | 472 kts | 351° |
| 2026-04-17 09:32 | 37.21846 | 119.70514 | 26606 ft | 472 kts | 351° |
| 2026-04-17 09:33 | 37.25103 | 119.69870 | 26609 ft | 472 kts | 351° |
| 2026-04-17 09:33 | 37.27520 | 119.69390 | 26607 ft | 472 kts | 351° |
| 2026-04-17 09:33 | 37.30760 | 119.68743 | 26607 ft | 472 kts | 351° |
| 2026-04-17 09:33 | 37.34003 | 119.68087 | 26608 ft | 472 kts | 351° |
| 2026-04-17 09:34 | 37.37246 | 119.67425 | 26610 ft | 472 kts | 350° |
| 2026-04-17 09:34 | 37.40489 | 119.66761 | 26606 ft | 472 kts | 351° |
| 2026-04-17 09:34 | 37.43731 | 119.66100 | 26605 ft | 472 kts | 351° |
| 2026-04-17 09:34 | 37.46962 | 119.65445 | 26605 ft | 472 kts | 351° |
| 2026-04-17 09:35 | 37.50213 | 119.64785 | 26602 ft | 471 kts | 350° |
| 2026-04-17 09:35 | 37.53345 | 119.63605 | 26595 ft | 470 kts | 333° |
| 2026-04-17 09:35 | 37.55967 | 119.61186 | 26602 ft | 469 kts | 313° |
| 2026-04-17 09:35 | 37.57759 | 119.57789 | 26589 ft | 468 kts | 292° |
| 2026-04-17 09:36 | 37.58506 | 119.53836 | 26586 ft | 467 kts | 272° |
| 2026-04-17 09:36 | 37.58443 | 119.49736 | 26583 ft | 467 kts | 266° |
| 2026-04-17 09:36 | 37.58124 | 119.45664 | 26582 ft | 467 kts | 263° |
| 2026-04-17 09:37 | 37.57237 | 119.37647 | 26584 ft | 468 kts | 262° |
| 2026-04-17 09:37 | 37.56818 | 119.33571 | 26586 ft | 469 kts | 263° |
| 2026-04-17 09:37 | 37.56464 | 119.29492 | 26587 ft | 469 kts | 264° |
| 2026-04-17 09:37 | 37.56167 | 119.25390 | 26596 ft | 469 kts | 265° |
| 2026-04-17 09:38 | 37.55905 | 119.21290 | 26603 ft | 469 kts | 265° |
| 2026-04-17 09:38 | 37.55651 | 119.17183 | 26590 ft | 469 kts | 265° |
| 2026-04-17 09:38 | 37.55386 | 119.13094 | 26601 ft | 469 kts | 265° |
| 2026-04-17 09:38 | 37.55103 | 119.08993 | 26590 ft | 469 kts | 265° |
| 2026-04-17 09:39 | 37.54806 | 119.04893 | 26592 ft | 469 kts | 264° |
| 2026-04-17 09:39 | 37.54501 | 119.00796 | 26590 ft | 470 kts | 264° |
| 2026-04-17 09:39 | 37.54193 | 118.96675 | 26599 ft | 470 kts | 264° |
| 2026-04-17 09:39 | 37.53885 | 118.92584 | 26592 ft | 470 kts | 264° |
| 2026-04-17 09:40 | 37.53578 | 118.88539 | 26600 ft | 470 kts | 264° |
| 2026-04-17 09:40 | 37.53262 | 118.84387 | 26595 ft | 470 kts | 264° |
| 2026-04-17 09:40 | 37.52952 | 118.80292 | 26601 ft | 470 kts | 264° |
| 2026-04-17 09:40 | 37.52615 | 118.76252 | 26601 ft | 470 kts | 263° |
| 2026-04-17 09:41 | 37.52172 | 118.72129 | 26605 ft | 470 kts | 261° |
| 2026-04-17 09:41 | 37.51663 | 118.68105 | 26600 ft | 470 kts | 261° |
| 2026-04-17 09:41 | 37.51111 | 118.64047 | 26608 ft | 470 kts | 260° |
| 2026-04-17 09:41 | 37.50554 | 118.59979 | 26602 ft | 470 kts | 260° |
| 2026-04-17 09:42 | 37.50010 | 118.55923 | 26602 ft | 470 kts | 261° |
| 2026-04-17 09:42 | 37.49484 | 118.51858 | 26612 ft | 470 kts | 261° |
| 2026-04-17 09:42 | 37.48971 | 118.47782 | 26607 ft | 470 kts | 261° |
| 2026-04-17 09:42 | 37.48465 | 118.43711 | 26602 ft | 470 kts | 261° |
| 2026-04-17 09:43 | 37.47962 | 118.39652 | 26602 ft | 470 kts | 261° |
| 2026-04-17 09:43 | 37.47455 | 118.35587 | 26605 ft | 470 kts | 261° |
| 2026-04-17 09:43 | 37.46944 | 118.31526 | 26603 ft | 470 kts | 261° |
| 2026-04-17 09:43 | 37.46424 | 118.27457 | 26598 ft | 470 kts | 261° |
| 2026-04-17 09:44 | 37.45900 | 118.23403 | 26607 ft | 470 kts | 261° |
| 2026-04-17 09:44 | 37.45379 | 118.19354 | 26600 ft | 470 kts | 261° |
| 2026-04-17 09:44 | 37.44863 | 118.15290 | 26602 ft | 469 kts | 261° |
| 2026-04-17 09:44 | 37.44352 | 118.11223 | 26592 ft | 469 kts | 261° |
| 2026-04-17 09:45 | 37.43846 | 118.07164 | 26590 ft | 469 kts | 261° |
| 2026-04-17 09:45 | 37.43338 | 118.03108 | 26588 ft | 469 kts | 261° |
| 2026-04-17 09:45 | 37.42831 | 117.99060 | 26587 ft | 469 kts | 261° |
| 2026-04-17 09:45 | 37.42323 | 117.95018 | 26588 ft | 469 kts | 261° |
| 2026-04-17 09:46 | 37.41810 | 117.90957 | 26586 ft | 469 kts | 261° |
| 2026-04-17 09:46 | 37.41296 | 117.86915 | 26601 ft | 469 kts | 261° |
| 2026-04-17 09:46 | 37.40778 | 117.82854 | 26589 ft | 469 kts | 261° |
| 2026-04-17 09:46 | 37.40261 | 117.78802 | 26588 ft | 469 kts | 261° |
| 2026-04-17 09:47 | 37.39744 | 117.74760 | 26589 ft | 469 kts | 261° |
| 2026-04-17 09:47 | 37.39223 | 117.70711 | 26589 ft | 469 kts | 261° |
| 2026-04-17 09:47 | 37.38697 | 117.66656 | 26598 ft | 469 kts | 261° |
| 2026-04-17 09:47 | 37.38173 | 117.62608 | 26589 ft | 469 kts | 261° |
| 2026-04-17 09:48 | 37.37650 | 117.58555 | 26597 ft | 469 kts | 261° |
| 2026-04-17 09:48 | 37.37126 | 117.54507 | 26587 ft | 469 kts | 261° |
| 2026-04-17 09:48 | 37.36605 | 117.50516 | 26588 ft | 469 kts | 261° |
| 2026-04-17 09:48 | 37.36066 | 117.46416 | 26601 ft | 469 kts | 261° |
| 2026-04-17 09:49 | 37.35464 | 117.42390 | 26587 ft | 469 kts | 255° |
| 2026-04-17 09:49 | 37.34338 | 117.38549 | 26598 ft | 469 kts | 246° |
| 2026-04-17 09:49 | 37.32997 | 117.34798 | 26594 ft | 470 kts | 246° |
| 2026-04-17 09:49 | 37.31674 | 117.31108 | 26596 ft | 470 kts | 246° |
| 2026-04-17 09:50 | 37.30333 | 117.27376 | 26594 ft | 470 kts | 246° |
| 2026-04-17 09:50 | 37.28982 | 117.23626 | 26603 ft | 470 kts | 245° |
| 2026-04-17 09:50 | 37.27633 | 117.19892 | 26602 ft | 470 kts | 245° |
| 2026-04-17 09:50 | 37.26284 | 117.16153 | 26595 ft | 470 kts | 246° |
| 2026-04-17 09:51 | 37.24941 | 117.12421 | 26604 ft | 470 kts | 246° |
| 2026-04-17 09:51 | 37.23596 | 117.08674 | 26592 ft | 470 kts | 246° |
| 2026-04-17 09:51 | 37.22256 | 117.04938 | 26597 ft | 470 kts | 246° |
| 2026-04-17 09:51 | 37.20909 | 117.01204 | 26588 ft | 469 kts | 245° |
| 2026-04-17 09:52 | 37.19557 | 116.97482 | 26587 ft | 469 kts | 245° |
| 2026-04-17 09:52 | 37.18197 | 116.93752 | 26587 ft | 469 kts | 245° |
| 2026-04-17 09:52 | 37.16835 | 116.90029 | 26587 ft | 469 kts | 245° |
| 2026-04-17 09:52 | 37.15472 | 116.86314 | 26596 ft | 469 kts | 245° |
| 2026-04-17 09:53 | 37.14113 | 116.82601 | 26586 ft | 469 kts | 245° |
| 2026-04-17 09:53 | 37.12769 | 116.78876 | 26596 ft | 469 kts | 246° |
| 2026-04-17 09:53 | 37.11467 | 116.75121 | 26588 ft | 469 kts | 247° |
| 2026-04-17 09:53 | 37.10201 | 116.71355 | 26594 ft | 469 kts | 247° |
| 2026-04-17 09:54 | 37.08948 | 116.67584 | 26588 ft | 469 kts | 248° |
| 2026-04-17 09:54 | 37.07689 | 116.63811 | 26588 ft | 469 kts | 247° |
| 2026-04-17 09:54 | 37.06423 | 116.60045 | 26598 ft | 469 kts | 247° |
| 2026-04-17 09:54 | 37.05149 | 116.56283 | 26588 ft | 469 kts | 247° |
| 2026-04-17 09:55 | 37.03881 | 116.52567 | 26588 ft | 469 kts | 247° |
| 2026-04-17 09:55 | 37.02595 | 116.48816 | 26588 ft | 469 kts | 247° |
| 2026-04-17 09:55 | 37.01290 | 116.45013 | 26587 ft | 470 kts | 247° |
| 2026-04-17 09:55 | 37.00018 | 116.41306 | 26597 ft | 470 kts | 247° |
| 2026-04-17 09:56 | 36.98729 | 116.37548 | 26596 ft | 470 kts | 247° |
| 2026-04-17 09:56 | 36.97441 | 116.33797 | 26603 ft | 470 kts | 247° |
| 2026-04-17 09:56 | 36.96151 | 116.30047 | 26592 ft | 470 kts | 247° |
| 2026-04-17 09:56 | 36.94854 | 116.26285 | 26593 ft | 470 kts | 246° |
| 2026-04-17 09:57 | 36.93563 | 116.22546 | 26597 ft | 470 kts | 246° |
| 2026-04-17 09:57 | 36.92265 | 116.18784 | 26599 ft | 470 kts | 246° |
| 2026-04-17 09:57 | 36.90973 | 116.15038 | 26596 ft | 470 kts | 246° |
| 2026-04-17 09:57 | 36.89679 | 116.11293 | 26595 ft | 470 kts | 246° |
| 2026-04-17 09:58 | 36.88378 | 116.07540 | 26589 ft | 470 kts | 246° |
| 2026-04-17 09:58 | 36.87076 | 116.03793 | 26595 ft | 470 kts | 246° |
| 2026-04-17 09:58 | 36.85774 | 116.00053 | 26592 ft | 470 kts | 246° |
| 2026-04-17 09:58 | 36.84472 | 115.96311 | 26594 ft | 470 kts | 246° |
| 2026-04-17 09:59 | 36.83171 | 115.92571 | 26596 ft | 470 kts | 246° |
| 2026-04-17 09:59 | 36.81870 | 115.88838 | 26587 ft | 470 kts | 246° |
| 2026-04-17 09:59 | 36.80561 | 115.85090 | 26592 ft | 470 kts | 246° |
| 2026-04-17 09:59 | 36.79255 | 115.81358 | 26603 ft | 470 kts | 246° |
| 2026-04-17 10:00 | 36.77947 | 115.77625 | 26600 ft | 470 kts | 246° |
| 2026-04-17 10:00 | 36.76640 | 115.73890 | 26594 ft | 470 kts | 246° |
| 2026-04-17 10:00 | 36.75330 | 115.70151 | 26589 ft | 470 kts | 246° |
| 2026-04-17 10:00 | 36.74017 | 115.66415 | 26596 ft | 470 kts | 246° |
| 2026-04-17 10:01 | 36.72703 | 115.62691 | 26595 ft | 470 kts | 246° |
| 2026-04-17 10:01 | 36.71388 | 115.58966 | 26587 ft | 470 kts | 246° |
| 2026-04-17 10:01 | 36.70072 | 115.55227 | 26600 ft | 470 kts | 246° |
| 2026-04-17 10:01 | 36.68759 | 115.51502 | 26603 ft | 470 kts | 246° |
| 2026-04-17 10:02 | 36.67447 | 115.47786 | 26593 ft | 470 kts | 246° |
| 2026-04-17 10:02 | 36.66141 | 115.44104 | 26593 ft | 470 kts | 246° |
| 2026-04-17 10:02 | 36.64816 | 115.40390 | 26586 ft | 470 kts | 246° |
| 2026-04-17 10:02 | 36.63486 | 115.36666 | 26595 ft | 470 kts | 246° |
| 2026-04-17 10:03 | 36.62164 | 115.32954 | 26588 ft | 470 kts | 246° |
| 2026-04-17 10:03 | 36.60839 | 115.29225 | 26592 ft | 470 kts | 246° |
| 2026-04-17 10:03 | 36.59517 | 115.25511 | 26586 ft | 470 kts | 246° |
| 2026-04-17 10:03 | 36.58189 | 115.21787 | 26594 ft | 470 kts | 246° |
| 2026-04-17 10:04 | 36.56732 | 115.18154 | 26584 ft | 470 kts | 238° |
| 2026-04-17 10:04 | 36.54702 | 115.14988 | 26586 ft | 470 kts | 224° |
| 2026-04-17 10:04 | 36.52138 | 115.12481 | 26593 ft | 470 kts | 211° |
| 2026-04-17 10:04 | 36.49214 | 115.10654 | 26596 ft | 470 kts | 205° |
| 2026-04-17 10:05 | 36.46247 | 115.08947 | 26588 ft | 470 kts | 205° |
| 2026-04-17 10:05 | 36.43278 | 115.07238 | 26586 ft | 470 kts | 205° |
| 2026-04-17 10:05 | 36.40312 | 115.05526 | 26587 ft | 470 kts | 205° |
| 2026-04-17 10:05 | 36.37338 | 115.03841 | 26587 ft | 470 kts | 202° |
| 2026-04-17 10:06 | 36.34192 | 115.02716 | 26586 ft | 471 kts | 190° |
| 2026-04-17 10:06 | 36.30934 | 115.02288 | 26591 ft | 471 kts | 185° |
| 2026-04-17 10:06 | 36.27676 | 115.01964 | 26591 ft | 471 kts | 185° |
| 2026-04-17 10:06 | 36.24403 | 115.01648 | 26587 ft | 471 kts | 185° |
| 2026-04-17 10:07 | 36.21135 | 115.01335 | 26593 ft | 471 kts | 185° |
| 2026-04-17 10:07 | 36.17910 | 115.01023 | 26599 ft | 471 kts | 185° |
| 2026-04-17 10:07 | 36.14639 | 115.00702 | 26589 ft | 471 kts | 185° |
| 2026-04-17 10:07 | 36.11368 | 115.00378 | 26589 ft | 471 kts | 185° |
| 2026-04-17 10:08 | 36.08094 | 115.00054 | 26589 ft | 471 kts | 185° |
| 2026-04-17 10:08 | 36.04821 | 114.99731 | 26588 ft | 471 kts | 185° |
| 2026-04-17 10:08 | 36.01554 | 114.99409 | 26599 ft | 471 kts | 185° |
| 2026-04-17 10:08 | 35.98283 | 114.99086 | 26599 ft | 471 kts | 185° |
| 2026-04-17 10:09 | 35.95022 | 114.98760 | 26588 ft | 471 kts | 185° |
| 2026-04-17 10:09 | 35.91742 | 114.98436 | 26589 ft | 471 kts | 185° |
| 2026-04-17 10:09 | 35.88480 | 114.98114 | 26592 ft | 471 kts | 185° |
| 2026-04-17 10:09 | 35.85209 | 114.97792 | 26592 ft | 471 kts | 185° |
| 2026-04-17 10:10 | 35.81939 | 114.97468 | 26592 ft | 471 kts | 185° |
| 2026-04-17 10:10 | 35.79766 | 114.97253 | 26589 ft | 471 kts | 185° |
| 2026-04-17 10:10 | 35.75424 | 114.96829 | 26589 ft | 471 kts | 185° |
| 2026-04-17 10:11 | 35.69949 | 114.96298 | 26594 ft | 471 kts | 185° |
| 2026-04-17 10:11 | 35.65615 | 114.95876 | 26599 ft | 471 kts | 185° |
| 2026-04-17 10:11 | 35.62348 | 114.95555 | 26588 ft | 471 kts | 185° |
| 2026-04-17 10:11 | 35.60135 | 114.95336 | 26589 ft | 471 kts | 185° |
| 2026-04-17 10:12 | 35.55807 | 114.94910 | 26589 ft | 471 kts | 185° |
| 2026-04-17 10:12 | 35.53600 | 114.94694 | 26589 ft | 471 kts | 185° |
| 2026-04-17 10:12 | 35.50330 | 114.94375 | 26589 ft | 471 kts | 185° |
| 2026-04-17 10:12 | 35.47106 | 114.94064 | 26592 ft | 471 kts | 185° |
| 2026-04-17 10:13 | 35.43789 | 114.93746 | 26587 ft | 471 kts | 185° |
| 2026-04-17 10:13 | 35.40525 | 114.93429 | 26587 ft | 471 kts | 185° |
| 2026-04-17 10:13 | 35.37295 | 114.93114 | 26589 ft | 471 kts | 185° |
| 2026-04-17 10:13 | 35.33985 | 114.92792 | 26599 ft | 471 kts | 185° |
| 2026-04-17 10:14 | 35.30713 | 114.92474 | 26592 ft | 471 kts | 185° |
| 2026-04-17 10:14 | 35.27448 | 114.92156 | 26586 ft | 471 kts | 185° |
| 2026-04-17 10:14 | 35.24221 | 114.91841 | 26589 ft | 471 kts | 185° |
| 2026-04-17 10:14 | 35.20959 | 114.91520 | 26597 ft | 471 kts | 185° |
| 2026-04-17 10:15 | 35.17639 | 114.91190 | 26593 ft | 471 kts | 185° |
| 2026-04-17 10:15 | 35.14412 | 114.90869 | 26589 ft | 471 kts | 185° |
| 2026-04-17 10:15 | 35.11140 | 114.90546 | 26587 ft | 471 kts | 185° |
| 2026-04-17 10:15 | 35.07869 | 114.90217 | 26586 ft | 471 kts | 185° |
| 2026-04-17 10:16 | 35.04595 | 114.89878 | 26592 ft | 471 kts | 185° |
| 2026-04-17 10:16 | 35.01329 | 114.89535 | 26595 ft | 471 kts | 185° |
| 2026-04-17 10:16 | 34.98066 | 114.89195 | 26589 ft | 471 kts | 185° |
| 2026-04-17 10:16 | 34.94794 | 114.88855 | 26587 ft | 471 kts | 185° |
| 2026-04-17 10:17 | 34.91525 | 114.88516 | 26589 ft | 471 kts | 185° |
| 2026-04-17 10:17 | 34.88263 | 114.88180 | 26587 ft | 471 kts | 185° |
| 2026-04-17 10:17 | 34.84990 | 114.87842 | 26590 ft | 471 kts | 185° |
| 2026-04-17 10:17 | 34.81725 | 114.87505 | 26589 ft | 471 kts | 185° |
| 2026-04-17 10:18 | 34.78466 | 114.87171 | 26596 ft | 471 kts | 185° |
| 2026-04-17 10:18 | 34.75194 | 114.86838 | 26589 ft | 471 kts | 185° |
| 2026-04-17 10:18 | 34.71924 | 114.86506 | 26589 ft | 471 kts | 185° |
| 2026-04-17 10:18 | 34.68648 | 114.86173 | 26599 ft | 471 kts | 185° |
| 2026-04-17 10:19 | 34.65384 | 114.85839 | 26598 ft | 471 kts | 185° |
| 2026-04-17 10:19 | 34.62112 | 114.85503 | 26601 ft | 471 kts | 185° |
| 2026-04-17 10:19 | 34.58885 | 114.85174 | 26598 ft | 471 kts | 185° |
| 2026-04-17 10:19 | 34.55620 | 114.84845 | 26588 ft | 471 kts | 185° |
| 2026-04-17 10:20 | 34.52343 | 114.84514 | 26588 ft | 471 kts | 185° |
| 2026-04-17 10:20 | 34.49070 | 114.84182 | 26587 ft | 471 kts | 185° |
| 2026-04-17 10:20 | 34.45800 | 114.83851 | 26596 ft | 471 kts | 185° |
| 2026-04-17 10:20 | 34.42543 | 114.83517 | 26592 ft | 471 kts | 185° |
| 2026-04-17 10:21 | 34.39266 | 114.83182 | 26598 ft | 471 kts | 185° |
| 2026-04-17 10:21 | 34.36000 | 114.82849 | 26588 ft | 471 kts | 185° |
| 2026-04-17 10:21 | 34.32719 | 114.82514 | 26589 ft | 471 kts | 185° |
| 2026-04-17 10:21 | 34.29459 | 114.82178 | 26592 ft | 471 kts | 185° |
| 2026-04-17 10:22 | 34.27293 | 114.81957 | 26589 ft | 471 kts | 185° |
| 2026-04-17 10:22 | 34.22349 | 114.81459 | 26600 ft | 471 kts | 185° |
| 2026-04-17 10:22 | 34.19076 | 114.81130 | 26597 ft | 471 kts | 185° |
| 2026-04-17 10:22 | 34.15807 | 114.80803 | 26589 ft | 471 kts | 185° |
| 2026-04-17 10:23 | 34.12541 | 114.80485 | 26589 ft | 471 kts | 185° |
| 2026-04-17 10:23 | 34.09268 | 114.80172 | 26588 ft | 471 kts | 185° |
| 2026-04-17 10:23 | 34.05998 | 114.79859 | 26587 ft | 471 kts | 185° |
| 2026-04-17 10:23 | 34.02734 | 114.79548 | 26595 ft | 471 kts | 185° |
| 2026-04-17 10:24 | 33.99503 | 114.79241 | 26589 ft | 471 kts | 185° |
| 2026-04-17 10:24 | 33.96223 | 114.78928 | 26587 ft | 471 kts | 185° |
| 2026-04-17 10:24 | 33.92950 | 114.78616 | 26587 ft | 471 kts | 185° |
| 2026-04-17 10:24 | 33.89678 | 114.78301 | 26601 ft | 471 kts | 185° |
| 2026-04-17 10:25 | 33.86401 | 114.77983 | 26592 ft | 471 kts | 185° |
| 2026-04-17 10:25 | 33.83120 | 114.77665 | 26589 ft | 471 kts | 185° |
| 2026-04-17 10:25 | 33.79852 | 114.77344 | 26591 ft | 471 kts | 185° |
| 2026-04-17 10:25 | 33.76624 | 114.77022 | 26597 ft | 471 kts | 185° |
| 2026-04-17 10:26 | 33.73354 | 114.76692 | 26598 ft | 471 kts | 185° |
| 2026-04-17 10:26 | 33.70087 | 114.76362 | 26588 ft | 471 kts | 185° |
| 2026-04-17 10:26 | 33.66815 | 114.76040 | 26591 ft | 471 kts | 185° |
| 2026-04-17 10:26 | 33.63537 | 114.75734 | 26589 ft | 471 kts | 185° |
| 2026-04-17 10:27 | 33.60273 | 114.75437 | 26592 ft | 471 kts | 184° |
| 2026-04-17 10:27 | 33.56993 | 114.75138 | 26593 ft | 471 kts | 185° |
| 2026-04-17 10:27 | 33.53722 | 114.74822 | 26592 ft | 471 kts | 185° |
| 2026-04-17 10:27 | 33.50450 | 114.74486 | 26599 ft | 471 kts | 185° |
| 2026-04-17 10:28 | 33.47185 | 114.74140 | 26589 ft | 471 kts | 185° |
| 2026-04-17 10:28 | 33.43913 | 114.73800 | 26597 ft | 471 kts | 185° |
| 2026-04-17 10:28 | 33.40637 | 114.73472 | 26588 ft | 471 kts | 185° |
| 2026-04-17 10:28 | 33.37411 | 114.73159 | 26595 ft | 471 kts | 185° |
| 2026-04-17 10:29 | 33.34098 | 114.72844 | 26589 ft | 471 kts | 185° |
| 2026-04-17 10:29 | 33.30828 | 114.72534 | 26588 ft | 471 kts | 185° |
| 2026-04-17 10:29 | 33.27596 | 114.72227 | 26592 ft | 471 kts | 185° |
| 2026-04-17 10:29 | 33.24324 | 114.71917 | 26595 ft | 471 kts | 185° |
| 2026-04-17 10:30 | 33.21043 | 114.71606 | 26589 ft | 471 kts | 185° |
| 2026-04-17 10:30 | 33.17775 | 114.71293 | 26592 ft | 471 kts | 185° |
| 2026-04-17 10:30 | 33.14497 | 114.70973 | 26598 ft | 471 kts | 185° |
| 2026-04-17 10:30 | 33.12329 | 114.70758 | 26592 ft | 471 kts | 185° |
| 2026-04-17 10:31 | 33.09061 | 114.70430 | 26593 ft | 471 kts | 185° |
| 2026-04-17 10:31 | 33.05787 | 114.70102 | 26587 ft | 471 kts | 185° |
| 2026-04-17 10:31 | 33.02508 | 114.69776 | 26599 ft | 471 kts | 185° |
| 2026-04-17 10:31 | 32.99240 | 114.69453 | 26596 ft | 471 kts | 185° |
| 2026-04-17 10:32 | 32.95968 | 114.69130 | 26589 ft | 471 kts | 185° |
| 2026-04-17 10:32 | 32.92705 | 114.68810 | 26592 ft | 471 kts | 185° |
| 2026-04-17 10:32 | 32.88364 | 114.68386 | 26599 ft | 471 kts | 185° |
| 2026-04-17 10:32 | 32.85088 | 114.68068 | 26593 ft | 471 kts | 185° |
| 2026-04-17 10:33 | 32.82911 | 114.67860 | 26589 ft | 471 kts | 185° |
| 2026-04-17 10:33 | 32.79649 | 114.67554 | 26592 ft | 471 kts | 185° |
| 2026-04-17 10:33 | 32.76366 | 114.67248 | 26589 ft | 471 kts | 185° |
| 2026-04-17 10:33 | 32.73095 | 114.66945 | 26593 ft | 471 kts | 185° |
| 2026-04-17 10:34 | 32.69813 | 114.66640 | 26593 ft | 471 kts | 185° |
| 2026-04-17 10:34 | 32.66551 | 114.66335 | 26599 ft | 471 kts | 185° |
| 2026-04-17 10:34 | 32.63272 | 114.66026 | 26597 ft | 472 kts | 185° |
| 2026-04-17 10:34 | 32.60006 | 114.65716 | 26589 ft | 472 kts | 185° |
| 2026-04-17 10:35 | 32.56729 | 114.65406 | 26589 ft | 472 kts | 185° |
| 2026-04-17 10:35 | 32.53492 | 114.65101 | 26589 ft | 472 kts | 185° |
| 2026-04-17 10:35 | 32.50221 | 114.64791 | 26591 ft | 472 kts | 185° |
| 2026-04-17 10:35 | 32.46945 | 114.64482 | 26596 ft | 472 kts | 185° |
| 2026-04-17 10:36 | 32.43678 | 114.64174 | 26589 ft | 472 kts | 185° |
| 2026-04-17 10:36 | 32.40395 | 114.63865 | 26590 ft | 472 kts | 185° |
| 2026-04-17 10:36 | 32.37118 | 114.63557 | 26590 ft | 472 kts | 185° |
| 2026-04-17 10:36 | 32.33858 | 114.63244 | 26602 ft | 472 kts | 185° |
| 2026-04-17 10:37 | 32.30582 | 114.62925 | 26594 ft | 472 kts | 185° |
| 2026-04-17 10:37 | 32.27351 | 114.62611 | 26597 ft | 472 kts | 185° |
| 2026-04-17 10:37 | 32.24077 | 114.62294 | 26590 ft | 472 kts | 185° |
| 2026-04-17 10:37 | 32.20810 | 114.61976 | 26590 ft | 472 kts | 185° |
| 2026-04-17 10:38 | 32.17532 | 114.61656 | 26598 ft | 472 kts | 185° |
| 2026-04-17 10:38 | 32.14253 | 114.61336 | 26593 ft | 472 kts | 185° |
| 2026-04-17 10:38 | 32.10975 | 114.61015 | 26593 ft | 472 kts | 185° |
| 2026-04-17 10:38 | 32.07702 | 114.60696 | 26594 ft | 472 kts | 185° |
| 2026-04-17 10:39 | 32.04424 | 114.60380 | 26594 ft | 472 kts | 185° |
| 2026-04-17 10:39 | 32.01154 | 114.60069 | 26599 ft | 472 kts | 185° |
| 2026-04-17 10:39 | 31.97882 | 114.59757 | 26593 ft | 472 kts | 185° |
| 2026-04-17 10:39 | 31.94652 | 114.59444 | 26596 ft | 472 kts | 185° |
| 2026-04-17 10:40 | 31.91336 | 114.59118 | 26592 ft | 472 kts | 185° |
| 2026-04-17 10:40 | 31.88110 | 114.58802 | 26589 ft | 472 kts | 185° |
| 2026-04-17 10:40 | 31.84782 | 114.58478 | 26589 ft | 472 kts | 185° |
| 2026-04-17 10:40 | 31.81555 | 114.58164 | 26594 ft | 472 kts | 185° |
| 2026-04-17 10:41 | 31.78264 | 114.57844 | 26590 ft | 472 kts | 185° |